sensor_id;sensor_type;location;lat;lon;timestamp;temperature;humidity
51021;DHT22;38907;45.562;8.856;2024-01-30T00:00:15;0.30;99.90
51021;DHT22;38907;45.562;8.856;2024-01-30T00:05:19;0.40;99.90
51021;DHT22;38907;45.562;8.856;2024-01-30T00:10:20;0.40;99.90
51021;DHT22;38907;45.562;8.856;2024-01-30T00:15:25;0.20;99.90
51021;DHT22;38907;45.562;8.856;2024-01-30T00:20:28;0.20;99.90
51021;DHT22;38907;45.562;8.856;2024-01-30T00:25:30;0.30;99.90
51021;DHT22;38907;45.562;8.856;2024-01-30T00:30:31;0.20;99.90
51021;DHT22;38907;45.562;8.856;2024-01-30T00:35:35;0.30;99.90
51021;DHT22;38907;45.562;8.856;2024-01-30T00:40:37;0.20;99.90
51021;DHT22;38907;45.562;8.856;2024-01-30T00:45:38;0.20;99.90
51021;DHT22;38907;45.562;8.856;2024-01-30T00:50:42;0.30;99.90
51021;DHT22;38907;45.562;8.856;2024-01-30T00:55:43;0.30;99.90
51021;DHT22;38907;45.562;8.856;2024-01-30T01:00:46;0.20;99.90
51021;DHT22;38907;45.562;8.856;2024-01-30T01:05:49;0.00;99.90
51021;DHT22;38907;45.562;8.856;2024-01-30T01:10:50;0.20;99.90
51021;DHT22;38907;45.562;8.856;2024-01-30T01:15:52;0.20;99.90
51021;DHT22;38907;45.562;8.856;2024-01-30T01:20:56;0.20;99.90
51021;DHT22;38907;45.562;8.856;2024-01-30T01:25:57;0.30;99.90
51021;DHT22;38907;45.562;8.856;2024-01-30T01:31:00;0.40;99.90
51021;DHT22;38907;45.562;8.856;2024-01-30T01:36:07;0.40;99.90
51021;DHT22;38907;45.562;8.856;2024-01-30T01:41:09;0.00;99.90
51021;DHT22;38907;45.562;8.856;2024-01-30T01:46:11;-0.10;99.90
51021;DHT22;38907;45.562;8.856;2024-01-30T01:51:14;0.00;99.90
51021;DHT22;38907;45.562;8.856;2024-01-30T01:56:17;0.40;99.90
51021;DHT22;38907;45.562;8.856;2024-01-30T02:01:20;0.50;99.90
51021;DHT22;38907;45.562;8.856;2024-01-30T02:06:23;0.40;99.90
51021;DHT22;38907;45.562;8.856;2024-01-30T02:11:25;0.30;99.90
51021;DHT22;38907;45.562;8.856;2024-01-30T02:16:27;0.00;99.90
51021;DHT22;38907;45.562;8.856;2024-01-30T02:21:30;0.10;99.90
51021;DHT22;38907;45.562;8.856;2024-01-30T02:26:32;0.20;99.90
51021;DHT22;38907;45.562;8.856;2024-01-30T02:31:33;0.30;99.90
51021;DHT22;38907;45.562;8.856;2024-01-30T02:36:37;0.30;99.90
51021;DHT22;38907;45.562;8.856;2024-01-30T02:41:39;0.40;99.90
51021;DHT22;38907;45.562;8.856;2024-01-30T02:46:40;0.60;99.90
51021;DHT22;38907;45.562;8.856;2024-01-30T02:51:43;0.60;99.90
51021;DHT22;38907;45.562;8.856;2024-01-30T02:56:45;0.20;99.90
51021;DHT22;38907;45.562;8.856;2024-01-30T03:01:48;0.20;99.90
51021;DHT22;38907;45.562;8.856;2024-01-30T03:06:52;0.30;99.90
51021;DHT22;38907;45.562;8.856;2024-01-30T03:11:53;0.20;99.90
51021;DHT22;38907;45.562;8.856;2024-01-30T03:16:55;0.10;99.90
51021;DHT22;38907;45.562;8.856;2024-01-30T03:21:58;0.20;99.90
51021;DHT22;38907;45.562;8.856;2024-01-30T03:27:00;0.30;99.90
51021;DHT22;38907;45.562;8.856;2024-01-30T03:32:02;0.00;99.90
51021;DHT22;38907;45.562;8.856;2024-01-30T03:37:06;0.00;99.90
51021;DHT22;38907;45.562;8.856;2024-01-30T03:42:08;0.40;99.90
51021;DHT22;38907;45.562;8.856;2024-01-30T03:47:10;0.50;99.90
51021;DHT22;38907;45.562;8.856;2024-01-30T03:52:13;0.40;99.90
51021;DHT22;38907;45.562;8.856;2024-01-30T03:57:15;0.50;99.90
51021;DHT22;38907;45.562;8.856;2024-01-30T04:02:17;0.40;99.90
51021;DHT22;38907;45.562;8.856;2024-01-30T04:07:20;0.30;99.90
51021;DHT22;38907;45.562;8.856;2024-01-30T04:12:22;0.20;99.90
51021;DHT22;38907;45.562;8.856;2024-01-30T04:17:24;0.30;99.90
51021;DHT22;38907;45.562;8.856;2024-01-30T04:22:28;0.20;99.90
51021;DHT22;38907;45.562;8.856;2024-01-30T04:27:29;0.10;99.90
51021;DHT22;38907;45.562;8.856;2024-01-30T04:32:32;0.00;99.90
51021;DHT22;38907;45.562;8.856;2024-01-30T04:37:35;0.10;99.90
51021;DHT22;38907;45.562;8.856;2024-01-30T04:42:37;0.10;99.90
51021;DHT22;38907;45.562;8.856;2024-01-30T04:47:39;0.10;99.90
51021;DHT22;38907;45.562;8.856;2024-01-30T04:52:42;0.10;99.90
51021;DHT22;38907;45.562;8.856;2024-01-30T04:57:44;0.00;99.90
51021;DHT22;38907;45.562;8.856;2024-01-30T05:02:45;-0.10;99.90
51021;DHT22;38907;45.562;8.856;2024-01-30T05:07:49;0.00;99.90
51021;DHT22;38907;45.562;8.856;2024-01-30T05:12:51;0.00;99.90
51021;DHT22;38907;45.562;8.856;2024-01-30T05:17:52;0.00;99.90
51021;DHT22;38907;45.562;8.856;2024-01-30T05:22:56;-0.10;99.90
51021;DHT22;38907;45.562;8.856;2024-01-30T05:27:58;0.00;99.90
51021;DHT22;38907;45.562;8.856;2024-01-30T05:32:59;0.00;99.90
51021;DHT22;38907;45.562;8.856;2024-01-30T05:38:03;-0.10;99.90
51021;DHT22;38907;45.562;8.856;2024-01-30T05:43:05;-0.10;99.90
51021;DHT22;38907;45.562;8.856;2024-01-30T05:48:07;-0.20;99.90
51021;DHT22;38907;45.562;8.856;2024-01-30T05:53:10;-0.50;99.90
51021;DHT22;38907;45.562;8.856;2024-01-30T05:58:12;-0.30;99.90
51021;DHT22;38907;45.562;8.856;2024-01-30T06:03:14;-0.30;99.90
51021;DHT22;38907;45.562;8.856;2024-01-30T06:08:17;-0.50;99.90
51021;DHT22;38907;45.562;8.856;2024-01-30T06:13:19;-0.50;99.90
51021;DHT22;38907;45.562;8.856;2024-01-30T06:18:21;-0.70;99.90
51021;DHT22;38907;45.562;8.856;2024-01-30T06:23:24;-0.60;99.90
51021;DHT22;38907;45.562;8.856;2024-01-30T06:28:26;-0.40;99.90
51021;DHT22;38907;45.562;8.856;2024-01-30T06:33:28;-0.30;99.90
51021;DHT22;38907;45.562;8.856;2024-01-30T06:38:31;-0.50;99.90
51021;DHT22;38907;45.562;8.856;2024-01-30T06:43:33;-0.40;99.90
51021;DHT22;38907;45.562;8.856;2024-01-30T06:48:35;-0.50;99.90
51021;DHT22;38907;45.562;8.856;2024-01-30T06:53:39;-0.70;99.90
51021;DHT22;38907;45.562;8.856;2024-01-30T06:58:40;-0.70;99.90
51021;DHT22;38907;45.562;8.856;2024-01-30T07:03:42;-0.80;99.90
51021;DHT22;38907;45.562;8.856;2024-01-30T07:08:45;-0.80;99.90
51021;DHT22;38907;45.562;8.856;2024-01-30T07:13:47;-0.70;99.90
51021;DHT22;38907;45.562;8.856;2024-01-30T07:18:49;-0.60;99.90
51021;DHT22;38907;45.562;8.856;2024-01-30T07:23:53;-0.20;99.90
51021;DHT22;38907;45.562;8.856;2024-01-30T07:28:54;-0.10;99.90
51021;DHT22;38907;45.562;8.856;2024-01-30T07:33:56;0.20;99.90
51021;DHT22;38907;45.562;8.856;2024-01-30T07:38:59;0.40;99.90
51021;DHT22;38907;45.562;8.856;2024-01-30T07:44:03;0.20;99.90
51021;DHT22;38907;45.562;8.856;2024-01-30T07:49:05;-0.10;99.90
51021;DHT22;38907;45.562;8.856;2024-01-30T07:54:14;0.30;99.90
51021;DHT22;38907;45.562;8.856;2024-01-30T07:59:16;0.10;99.90
51021;DHT22;38907;45.562;8.856;2024-01-30T08:04:20;0.00;99.90
51021;DHT22;38907;45.562;8.856;2024-01-30T08:09:23;0.00;99.90
51021;DHT22;38907;45.562;8.856;2024-01-30T08:14:25;0.00;99.90
51021;DHT22;38907;45.562;8.856;2024-01-30T08:19:27;0.10;99.90
51021;DHT22;38907;45.562;8.856;2024-01-30T08:24:30;0.20;99.90
51021;DHT22;38907;45.562;8.856;2024-01-30T08:29:32;0.20;99.90
51021;DHT22;38907;45.562;8.856;2024-01-30T08:34:34;0.30;99.90
51021;DHT22;38907;45.562;8.856;2024-01-30T08:39:38;0.40;99.90
51021;DHT22;38907;45.562;8.856;2024-01-30T08:44:39;0.70;99.90
51021;DHT22;38907;45.562;8.856;2024-01-30T08:49:42;0.80;99.90
51021;DHT22;38907;45.562;8.856;2024-01-30T08:54:46;0.90;99.90
51021;DHT22;38907;45.562;8.856;2024-01-30T08:59:48;1.10;99.90
51021;DHT22;38907;45.562;8.856;2024-01-30T09:04:50;1.10;99.90
51021;DHT22;38907;45.562;8.856;2024-01-30T09:09:53;1.20;99.90
51021;DHT22;38907;45.562;8.856;2024-01-30T09:14:55;1.40;99.90
51021;DHT22;38907;45.562;8.856;2024-01-30T09:19:56;1.50;99.90
51021;DHT22;38907;45.562;8.856;2024-01-30T09:25:00;1.60;99.90
51021;DHT22;38907;45.562;8.856;2024-01-30T09:30:01;1.80;99.90
51021;DHT22;38907;45.562;8.856;2024-01-30T09:35:04;2.00;99.90
51021;DHT22;38907;45.562;8.856;2024-01-30T09:40:08;2.30;99.90
51021;DHT22;38907;45.562;8.856;2024-01-30T09:45:13;2.40;99.90
51021;DHT22;38907;45.562;8.856;2024-01-30T09:50:16;2.70;99.90
51021;DHT22;38907;45.562;8.856;2024-01-30T09:55:19;2.80;99.90
51021;DHT22;38907;45.562;8.856;2024-01-30T10:00:21;2.90;99.90
51021;DHT22;38907;45.562;8.856;2024-01-30T10:05:27;3.10;99.90
51021;DHT22;38907;45.562;8.856;2024-01-30T10:10:31;3.20;99.90
51021;DHT22;38907;45.562;8.856;2024-01-30T10:15:33;3.30;99.90
51021;DHT22;38907;45.562;8.856;2024-01-30T10:20:36;3.60;99.90
51021;DHT22;38907;45.562;8.856;2024-01-30T10:25:39;3.80;99.90
51021;DHT22;38907;45.562;8.856;2024-01-30T10:30:42;4.00;99.90
51021;DHT22;38907;45.562;8.856;2024-01-30T10:35:44;4.20;99.90
51021;DHT22;38907;45.562;8.856;2024-01-30T10:40:48;4.40;99.90
51021;DHT22;38907;45.562;8.856;2024-01-30T10:45:53;4.60;99.90
51021;DHT22;38907;45.562;8.856;2024-01-30T10:50:59;4.80;99.90
51021;DHT22;38907;45.562;8.856;2024-01-30T10:56:04;4.90;99.90
51021;DHT22;38907;45.562;8.856;2024-01-30T11:01:07;5.10;99.90
51021;DHT22;38907;45.562;8.856;2024-01-30T11:06:10;5.30;99.90
51021;DHT22;38907;45.562;8.856;2024-01-30T11:11:16;5.40;99.90
51021;DHT22;38907;45.562;8.856;2024-01-30T11:16:20;5.50;99.90
51021;DHT22;38907;45.562;8.856;2024-01-30T11:21:25;5.50;99.90
51021;DHT22;38907;45.562;8.856;2024-01-30T11:26:31;5.70;99.90
51021;DHT22;38907;45.562;8.856;2024-01-30T11:31:33;5.90;99.90
51021;DHT22;38907;45.562;8.856;2024-01-30T11:36:35;5.90;99.90
51021;DHT22;38907;45.562;8.856;2024-01-30T11:41:40;5.90;99.90
51021;DHT22;38907;45.562;8.856;2024-01-30T11:46:42;5.90;99.90
51021;DHT22;38907;45.562;8.856;2024-01-30T11:51:45;5.90;99.90
51021;DHT22;38907;45.562;8.856;2024-01-30T11:56:50;6.00;99.90
51021;DHT22;38907;45.562;8.856;2024-01-30T12:01:52;6.10;99.90
51021;DHT22;38907;45.562;8.856;2024-01-30T12:06:54;6.10;99.90
51021;DHT22;38907;45.562;8.856;2024-01-30T12:11:57;6.20;99.90
51021;DHT22;38907;45.562;8.856;2024-01-30T12:16:59;6.40;99.90
51021;DHT22;38907;45.562;8.856;2024-01-30T12:22:01;6.50;99.90
51021;DHT22;38907;45.562;8.856;2024-01-30T12:27:04;6.80;99.90
51021;DHT22;38907;45.562;8.856;2024-01-30T12:32:06;6.90;99.90
51021;DHT22;38907;45.562;8.856;2024-01-30T12:37:08;7.10;99.90
51021;DHT22;38907;45.562;8.856;2024-01-30T12:42:13;7.20;99.90
51021;DHT22;38907;45.562;8.856;2024-01-30T12:47:15;7.50;99.90
51021;DHT22;38907;45.562;8.856;2024-01-30T12:52:17;7.60;99.90
51021;DHT22;38907;45.562;8.856;2024-01-30T12:57:20;7.70;99.90
51021;DHT22;38907;45.562;8.856;2024-01-30T13:02:22;7.70;99.90
51021;DHT22;38907;45.562;8.856;2024-01-30T13:07:24;7.80;99.90
51021;DHT22;38907;45.562;8.856;2024-01-30T13:12:27;7.90;99.90
51021;DHT22;38907;45.562;8.856;2024-01-30T13:17:29;7.90;99.90
51021;DHT22;38907;45.562;8.856;2024-01-30T13:22:31;7.90;99.90
51021;DHT22;38907;45.562;8.856;2024-01-30T13:27:34;8.10;99.90
51021;DHT22;38907;45.562;8.856;2024-01-30T13:32:36;8.10;99.90
51021;DHT22;38907;45.562;8.856;2024-01-30T13:37:38;8.10;99.90
51021;DHT22;38907;45.562;8.856;2024-01-30T13:42:41;8.10;99.90
51021;DHT22;38907;45.562;8.856;2024-01-30T13:47:43;8.20;99.90
51021;DHT22;38907;45.562;8.856;2024-01-30T13:52:46;8.20;99.90
51021;DHT22;38907;45.562;8.856;2024-01-30T13:57:49;8.00;99.90
51021;DHT22;38907;45.562;8.856;2024-01-30T14:02:51;7.90;99.90
51021;DHT22;38907;45.562;8.856;2024-01-30T14:07:55;7.90;99.90
51021;DHT22;38907;45.562;8.856;2024-01-30T14:12:58;7.90;99.90
51021;DHT22;38907;45.562;8.856;2024-01-30T14:18:13;8.00;99.90
51021;DHT22;38907;45.562;8.856;2024-01-30T14:23:16;7.80;99.90
51021;DHT22;38907;45.562;8.856;2024-01-30T14:28:18;7.80;99.90
51021;DHT22;38907;45.562;8.856;2024-01-30T14:33:21;7.70;99.90
51021;DHT22;38907;45.562;8.856;2024-01-30T14:38:23;7.70;99.90
51021;DHT22;38907;45.562;8.856;2024-01-30T14:43:25;7.70;99.90
51021;DHT22;38907;45.562;8.856;2024-01-30T14:48:29;7.80;99.90
51021;DHT22;38907;45.562;8.856;2024-01-30T14:53:30;7.90;99.90
51021;DHT22;38907;45.562;8.856;2024-01-30T14:58:32;8.00;99.90
51021;DHT22;38907;45.562;8.856;2024-01-30T15:03:35;8.00;99.90
51021;DHT22;38907;45.562;8.856;2024-01-30T15:08:37;7.90;99.90
51021;DHT22;38907;45.562;8.856;2024-01-30T15:13:39;7.80;99.90
51021;DHT22;38907;45.562;8.856;2024-01-30T15:18:42;7.80;99.90
51021;DHT22;38907;45.562;8.856;2024-01-30T15:23:44;7.70;99.90
51021;DHT22;38907;45.562;8.856;2024-01-30T15:28:46;7.60;99.90
51021;DHT22;38907;45.562;8.856;2024-01-30T15:33:49;7.50;99.90
51021;DHT22;38907;45.562;8.856;2024-01-30T15:38:51;7.40;99.90
51021;DHT22;38907;45.562;8.856;2024-01-30T15:43:53;7.30;99.90
51021;DHT22;38907;45.562;8.856;2024-01-30T15:48:56;7.30;99.90
51021;DHT22;38907;45.562;8.856;2024-01-30T15:53:58;7.20;99.90
51021;DHT22;38907;45.562;8.856;2024-01-30T15:59:00;7.10;99.90
51021;DHT22;38907;45.562;8.856;2024-01-30T16:04:03;7.10;99.90
51021;DHT22;38907;45.562;8.856;2024-01-30T16:09:05;7.00;99.90
51021;DHT22;38907;45.562;8.856;2024-01-30T16:14:07;6.90;99.90
51021;DHT22;38907;45.562;8.856;2024-01-30T16:19:10;6.90;99.90
51021;DHT22;38907;45.562;8.856;2024-01-30T16:24:12;6.80;99.90
51021;DHT22;38907;45.562;8.856;2024-01-30T16:29:14;6.70;99.90
51021;DHT22;38907;45.562;8.856;2024-01-30T16:34:17;6.60;99.90
51021;DHT22;38907;45.562;8.856;2024-01-30T16:39:19;6.40;99.90
51021;DHT22;38907;45.562;8.856;2024-01-30T16:44:21;6.30;99.90
51021;DHT22;38907;45.562;8.856;2024-01-30T16:49:24;6.20;99.90
51021;DHT22;38907;45.562;8.856;2024-01-30T16:54:26;6.20;99.90
51021;DHT22;38907;45.562;8.856;2024-01-30T16:59:27;6.20;99.90
51021;DHT22;38907;45.562;8.856;2024-01-30T17:04:30;6.10;99.90
51021;DHT22;38907;45.562;8.856;2024-01-30T17:09:33;6.10;99.90
51021;DHT22;38907;45.562;8.856;2024-01-30T17:14:35;6.00;99.90
51021;DHT22;38907;45.562;8.856;2024-01-30T17:19:41;5.90;99.90
51021;DHT22;38907;45.562;8.856;2024-01-30T17:24:43;6.00;99.90
51021;DHT22;38907;45.562;8.856;2024-01-30T17:29:45;6.00;99.90
51021;DHT22;38907;45.562;8.856;2024-01-30T17:34:48;6.00;99.90
51021;DHT22;38907;45.562;8.856;2024-01-30T17:39:50;5.90;99.90
51021;DHT22;38907;45.562;8.856;2024-01-30T17:44:52;5.80;99.90
51021;DHT22;38907;45.562;8.856;2024-01-30T17:49:56;5.80;99.90
51021;DHT22;38907;45.562;8.856;2024-01-30T17:54:58;5.70;99.90
51021;DHT22;38907;45.562;8.856;2024-01-30T18:00:00;5.70;99.90
51021;DHT22;38907;45.562;8.856;2024-01-30T18:05:04;5.70;99.90
51021;DHT22;38907;45.562;8.856;2024-01-30T18:10:07;5.80;99.90
51021;DHT22;38907;45.562;8.856;2024-01-30T18:15:10;5.70;99.90
51021;DHT22;38907;45.562;8.856;2024-01-30T18:20:13;5.70;99.90
51021;DHT22;38907;45.562;8.856;2024-01-30T18:25:15;5.80;99.90
51021;DHT22;38907;45.562;8.856;2024-01-30T18:30:17;5.70;99.90
51021;DHT22;38907;45.562;8.856;2024-01-30T18:35:20;5.60;99.90
51021;DHT22;38907;45.562;8.856;2024-01-30T18:40:22;5.60;99.90
51021;DHT22;38907;45.562;8.856;2024-01-30T18:45:23;5.40;99.90
51021;DHT22;38907;45.562;8.856;2024-01-30T18:50:27;5.30;99.90
51021;DHT22;38907;45.562;8.856;2024-01-30T18:55:29;5.30;99.90
51021;DHT22;38907;45.562;8.856;2024-01-30T19:00:32;5.30;99.90
51021;DHT22;38907;45.562;8.856;2024-01-30T19:05:36;5.40;99.90
51021;DHT22;38907;45.562;8.856;2024-01-30T19:10:38;5.30;99.90
51021;DHT22;38907;45.562;8.856;2024-01-30T19:15:40;5.20;99.90
51021;DHT22;38907;45.562;8.856;2024-01-30T19:20:44;5.10;99.90
51021;DHT22;38907;45.562;8.856;2024-01-30T19:25:46;5.00;99.90
51021;DHT22;38907;45.562;8.856;2024-01-30T19:30:48;5.00;99.90
51021;DHT22;38907;45.562;8.856;2024-01-30T19:35:51;5.10;99.90
51021;DHT22;38907;45.562;8.856;2024-01-30T19:40:53;5.30;99.90
51021;DHT22;38907;45.562;8.856;2024-01-30T19:45:57;5.40;99.90
51021;DHT22;38907;45.562;8.856;2024-01-30T19:51:01;5.10;99.90
51021;DHT22;38907;45.562;8.856;2024-01-30T19:56:03;4.90;99.90
51021;DHT22;38907;45.562;8.856;2024-01-30T20:01:06;4.90;99.90
51021;DHT22;38907;45.562;8.856;2024-01-30T20:06:09;4.90;99.90
51021;DHT22;38907;45.562;8.856;2024-01-30T20:11:12;4.80;99.90
51021;DHT22;38907;45.562;8.856;2024-01-30T20:16:14;4.80;99.90
51021;DHT22;38907;45.562;8.856;2024-01-30T20:21:17;4.90;99.90
51021;DHT22;38907;45.562;8.856;2024-01-30T20:26:19;4.80;99.90
51021;DHT22;38907;45.562;8.856;2024-01-30T20:31:21;5.00;99.90
51021;DHT22;38907;45.562;8.856;2024-01-30T20:36:25;4.90;99.90
51021;DHT22;38907;45.562;8.856;2024-01-30T20:41:26;5.00;99.90
51021;DHT22;38907;45.562;8.856;2024-01-30T20:46:28;5.20;99.90
51021;DHT22;38907;45.562;8.856;2024-01-30T20:51:32;5.00;99.90
51021;DHT22;38907;45.562;8.856;2024-01-30T20:56:33;5.00;99.90
51021;DHT22;38907;45.562;8.856;2024-01-30T21:01:35;4.70;99.90
51021;DHT22;38907;45.562;8.856;2024-01-30T21:06:38;4.60;99.90
51021;DHT22;38907;45.562;8.856;2024-01-30T21:11:40;4.70;99.90
51021;DHT22;38907;45.562;8.856;2024-01-30T21:16:42;4.80;99.90
51021;DHT22;38907;45.562;8.856;2024-01-30T21:21:45;4.70;99.90
51021;DHT22;38907;45.562;8.856;2024-01-30T21:26:47;4.60;99.90
51021;DHT22;38907;45.562;8.856;2024-01-30T21:31:49;4.60;99.90
51021;DHT22;38907;45.562;8.856;2024-01-30T21:36:52;4.70;99.90
51021;DHT22;38907;45.562;8.856;2024-01-30T21:41:54;4.70;99.90
51021;DHT22;38907;45.562;8.856;2024-01-30T21:46:56;4.50;99.90
51021;DHT22;38907;45.562;8.856;2024-01-30T21:51:59;4.20;99.90
51021;DHT22;38907;45.562;8.856;2024-01-30T21:57:05;4.00;99.90
51021;DHT22;38907;45.562;8.856;2024-01-30T22:02:07;4.20;99.90
51021;DHT22;38907;45.562;8.856;2024-01-30T22:07:10;4.00;99.90
51021;DHT22;38907;45.562;8.856;2024-01-30T22:12:13;4.10;99.90
51021;DHT22;38907;45.562;8.856;2024-01-30T22:17:14;4.10;99.90
51021;DHT22;38907;45.562;8.856;2024-01-30T22:22:17;4.10;99.90
51021;DHT22;38907;45.562;8.856;2024-01-30T22:27:19;3.80;99.90
51021;DHT22;38907;45.562;8.856;2024-01-30T22:32:21;3.70;99.90
51021;DHT22;38907;45.562;8.856;2024-01-30T22:37:24;3.40;99.90
51021;DHT22;38907;45.562;8.856;2024-01-30T22:42:26;3.80;99.90
51021;DHT22;38907;45.562;8.856;2024-01-30T22:47:28;3.60;99.90
51021;DHT22;38907;45.562;8.856;2024-01-30T22:52:31;3.70;99.90
51021;DHT22;38907;45.562;8.856;2024-01-30T22:57:33;3.90;99.90
51021;DHT22;38907;45.562;8.856;2024-01-30T23:02:35;3.80;99.90
51021;DHT22;38907;45.562;8.856;2024-01-30T23:07:38;4.00;99.90
51021;DHT22;38907;45.562;8.856;2024-01-30T23:12:41;4.00;99.90
51021;DHT22;38907;45.562;8.856;2024-01-30T23:17:44;3.90;99.90
51021;DHT22;38907;45.562;8.856;2024-01-30T23:22:48;3.80;99.90
51021;DHT22;38907;45.562;8.856;2024-01-30T23:27:49;3.70;99.90
51021;DHT22;38907;45.562;8.856;2024-01-30T23:32:51;3.80;99.90
51021;DHT22;38907;45.562;8.856;2024-01-30T23:37:55;3.90;99.90
51021;DHT22;38907;45.562;8.856;2024-01-30T23:42:57;3.80;99.90
51021;DHT22;38907;45.562;8.856;2024-01-30T23:47:59;3.60;99.90
51021;DHT22;38907;45.562;8.856;2024-01-30T23:53:02;3.40;99.90
51021;DHT22;38907;45.562;8.856;2024-01-30T23:58:04;3.60;99.90
